createdAt,value
2018-07-25T00:01:26.035Z,17.23
2018-07-25T00:03:53.795Z,11.10
2018-07-25T00:06:21.587Z,11.57
2018-07-25T00:08:49.354Z,11.77
2018-07-25T00:11:17.112Z,11.83
2018-07-25T00:13:44.950Z,10.53
2018-07-25T00:16:12.778Z,10.23
2018-07-25T00:18:40.601Z,10.93
2018-07-25T00:21:08.375Z,10.70
2018-07-25T00:23:36.361Z,11.13
2018-07-25T00:26:04.290Z,13.27
2018-07-25T00:28:32.026Z,10.80
2018-07-25T00:30:59.802Z,12.73
2018-07-25T00:33:27.551Z,11.17
2018-07-25T00:35:55.404Z,11.10
2018-07-25T00:38:23.214Z,11.03
2018-07-25T00:40:50.965Z,11.23
2018-07-25T00:43:18.778Z,10.23
2018-07-25T00:45:46.546Z,11.87
2018-07-25T00:48:14.301Z,13.10
2018-07-25T00:50:42.104Z,12.23
2018-07-25T00:53:09.774Z,13.27
2018-07-25T00:55:37.567Z,13.00
2018-07-25T00:58:05.490Z,15.23
2018-07-25T01:00:33.254Z,13.50
2018-07-25T01:03:01.043Z,13.53
2018-07-25T01:05:28.962Z,12.80
2018-07-25T01:07:56.597Z,12.70
2018-07-25T01:10:24.447Z,12.70
2018-07-25T01:12:52.227Z,12.17
2018-07-25T01:15:19.938Z,12.93
2018-07-25T01:17:47.768Z,12.47
2018-07-25T01:20:15.537Z,11.87
2018-07-25T01:22:43.250Z,12.90
2018-07-25T01:25:11.106Z,13.83
2018-07-25T01:27:38.810Z,12.60
2018-07-25T01:30:06.617Z,13.80
2018-07-25T01:32:34.383Z,13.10
2018-07-25T01:35:02.238Z,15.00
2018-07-25T01:37:30.116Z,14.47
2018-07-25T01:39:57.842Z,16.97
2018-07-25T01:42:25.651Z,16.37
2018-07-25T01:44:53.463Z,15.30
2018-07-25T01:47:21.219Z,15.20
2018-07-25T01:49:49.009Z,13.63
2018-07-25T01:52:16.790Z,12.30
2018-07-25T01:54:44.651Z,9.60
2018-07-25T01:57:12.462Z,9.23
2018-07-25T01:59:40.246Z,10.17
2018-07-25T02:02:08.006Z,9.20
2018-07-25T02:04:35.910Z,10.37
2018-07-25T02:07:03.683Z,10.80
2018-07-25T02:09:31.454Z,10.93
2018-07-25T02:11:59.332Z,10.73
2018-07-25T02:14:27.106Z,10.00
2018-07-25T02:16:54.835Z,10.23
2018-07-25T02:19:22.664Z,9.57
2018-07-25T02:21:50.394Z,10.00
2018-07-25T02:24:18.155Z,9.73
2018-07-25T02:26:46.047Z,10.20
2018-07-25T02:29:13.862Z,9.37
2018-07-25T02:31:41.684Z,9.50
2018-07-25T02:34:15.561Z,11.10
2018-07-25T02:36:43.387Z,11.70
2018-07-25T02:39:12.731Z,14.30
2018-07-25T02:41:40.754Z,13.07
2018-07-25T02:44:08.600Z,11.30
2018-07-25T02:46:36.430Z,10.30
2018-07-25T02:49:04.213Z,11.37
2018-07-25T02:51:32.755Z,11.50
2018-07-25T02:54:00.526Z,11.70
2018-07-25T02:56:28.363Z,11.80
2018-07-25T02:58:56.188Z,12.90
2018-07-25T03:01:23.951Z,12.73
2018-07-25T03:03:51.724Z,12.20
2018-07-25T03:06:19.550Z,11.27
2018-07-25T03:08:47.252Z,11.43
2018-07-25T03:11:15.091Z,10.90
2018-07-25T03:13:43.811Z,11.87
2018-07-25T03:16:12.316Z,13.07
2018-07-25T03:18:40.125Z,12.30
2018-07-25T03:21:08.324Z,11.50
2018-07-25T03:23:36.981Z,13.03
2018-07-25T03:26:04.802Z,12.57
2018-07-25T03:28:32.638Z,10.80
2018-07-25T03:31:00.715Z,11.87
2018-07-25T03:33:28.517Z,13.17
2018-07-25T03:35:57.265Z,11.67
2018-07-25T03:38:25.463Z,11.20
2018-07-25T03:40:53.214Z,12.10
2018-07-25T03:43:21.014Z,12.83
2018-07-25T03:45:48.826Z,13.00
2018-07-25T03:48:16.594Z,13.63
2018-07-25T03:50:44.395Z,13.77
2018-07-25T03:53:12.140Z,14.53
2018-07-25T03:55:39.903Z,13.80
2018-07-25T03:58:07.786Z,13.63
2018-07-25T04:00:35.634Z,13.13
2018-07-25T04:03:03.361Z,13.43
2018-07-25T04:05:31.125Z,13.17
2018-07-25T04:07:58.834Z,12.73
2018-07-25T04:10:26.562Z,12.63
2018-07-25T04:12:54.544Z,11.40
2018-07-25T04:15:22.322Z,11.50
2018-07-25T04:17:49.966Z,11.30
2018-07-25T04:20:18.882Z,10.07
2018-07-25T04:22:46.604Z,10.33
2018-07-25T04:25:14.439Z,8.90
2018-07-25T04:27:43.168Z,8.07
2018-07-25T04:30:11.943Z,8.10
2018-07-25T04:32:41.634Z,7.90
2018-07-25T04:35:10.891Z,8.17
2018-07-25T04:37:38.871Z,10.03
2018-07-25T04:40:07.405Z,11.00
2018-07-25T04:42:35.351Z,13.27
2018-07-25T04:45:03.186Z,13.23
2018-07-25T04:47:30.930Z,13.50
2018-07-25T04:49:58.726Z,12.83
2018-07-25T04:52:26.591Z,13.57
2018-07-25T04:54:54.369Z,13.07
2018-07-25T04:57:22.170Z,13.93
2018-07-25T04:59:49.995Z,13.83
2018-07-25T05:02:17.773Z,18.50
2018-07-25T05:04:45.458Z,34.97
2018-07-25T05:07:13.348Z,40.37
2018-07-25T05:09:41.063Z,31.13
2018-07-25T05:12:08.798Z,29.20
2018-07-25T05:14:36.555Z,34.00
2018-07-25T05:17:04.347Z,24.93
2018-07-25T05:19:32.203Z,22.20
2018-07-25T05:21:59.994Z,14.73
2018-07-25T05:24:27.822Z,14.20
2018-07-25T05:26:55.871Z,17.17
2018-07-25T05:29:24.026Z,14.93
2018-07-25T05:31:51.918Z,11.47
2018-07-25T05:34:19.671Z,12.17
2018-07-25T05:36:48.389Z,11.43
2018-07-25T05:39:16.117Z,11.73
2018-07-25T05:41:43.866Z,11.50
2018-07-25T05:44:11.633Z,10.77
2018-07-25T05:46:39.501Z,12.93
2018-07-25T05:49:07.283Z,12.97
2018-07-25T05:51:35.210Z,14.47
2018-07-25T05:54:03.167Z,14.47
2018-07-25T05:56:30.970Z,16.10
2018-07-25T05:58:59.284Z,15.67
2018-07-25T06:01:26.958Z,15.70
2018-07-25T06:03:54.651Z,18.70
2018-07-25T06:06:22.698Z,17.60
2018-07-25T06:08:50.527Z,18.27
2018-07-25T06:11:18.414Z,18.00
2018-07-25T06:13:46.239Z,18.67
2018-07-25T06:16:13.962Z,20.50
2018-07-25T06:18:41.692Z,20.83
2018-07-25T06:21:09.605Z,22.20
2018-07-25T06:23:37.490Z,20.20
2018-07-25T06:26:05.569Z,21.40
2018-07-25T06:28:33.354Z,20.00
2018-07-25T06:31:01.167Z,20.10
2018-07-25T06:33:28.919Z,19.00
2018-07-25T06:35:56.746Z,20.03
2018-07-25T06:38:24.602Z,21.23
2018-07-25T06:40:52.449Z,18.57
2018-07-25T06:43:20.177Z,15.87
2018-07-25T06:45:47.966Z,16.93
2018-07-25T06:48:16.132Z,17.93
2018-07-25T06:50:43.878Z,18.67
2018-07-25T06:53:11.599Z,18.70
2018-07-25T06:55:39.270Z,18.23
2018-07-25T06:58:07.195Z,17.93
2018-07-25T07:00:35.008Z,18.00
2018-07-25T07:03:02.910Z,22.27
2018-07-25T07:05:30.682Z,16.07
2018-07-25T07:07:58.511Z,16.87
2018-07-25T07:10:26.570Z,16.97
2018-07-25T07:12:55.062Z,16.80
2018-07-25T07:15:22.919Z,19.00
2018-07-25T07:17:50.662Z,20.70
2018-07-25T07:20:18.431Z,16.70
2018-07-25T07:22:46.170Z,17.60
2018-07-25T07:25:13.923Z,20.30
2018-07-25T07:27:41.646Z,17.90
2018-07-25T07:30:09.355Z,16.20
2018-07-25T07:32:37.038Z,17.03
2018-07-25T07:35:04.913Z,16.37
2018-07-25T07:37:32.618Z,15.57
2018-07-25T07:40:00.234Z,16.93
2018-07-25T07:42:27.946Z,16.23
2018-07-25T07:44:55.830Z,15.30
2018-07-25T07:47:23.704Z,13.40
2018-07-25T07:49:51.483Z,13.57
2018-07-25T07:52:19.192Z,15.43
2018-07-25T07:54:46.847Z,13.07
2018-07-25T07:57:14.477Z,15.10
2018-07-25T07:59:42.236Z,13.43
2018-07-25T08:02:09.963Z,13.87
2018-07-25T08:04:37.710Z,14.27
2018-07-25T08:07:05.454Z,13.30
2018-07-25T08:09:33.200Z,13.87
2018-07-25T08:12:01.165Z,14.33
2018-07-25T08:14:28.870Z,13.23
2018-07-25T08:16:56.594Z,15.33
2018-07-25T08:19:24.242Z,16.03
2018-07-25T08:21:52.034Z,16.23
2018-07-25T08:24:19.811Z,15.87
2018-07-25T08:26:47.531Z,15.63
2018-07-25T08:29:15.303Z,14.13
2018-07-25T08:31:43.058Z,15.53
2018-07-25T08:34:10.771Z,16.07
2018-07-25T08:36:38.524Z,15.50
2018-07-25T08:39:07.714Z,13.77
2018-07-25T08:41:35.496Z,14.17
2018-07-25T08:44:04.391Z,14.70
2018-07-25T08:46:32.148Z,13.67
2018-07-25T08:48:59.851Z,12.43
2018-07-25T08:51:27.509Z,12.33
2018-07-25T08:53:55.200Z,13.93
2018-07-25T08:56:22.854Z,15.53
2018-07-25T08:58:50.610Z,12.70
2018-07-25T09:01:18.299Z,11.33
2018-07-25T09:03:46.019Z,10.53
2018-07-25T09:06:13.715Z,11.00
2018-07-25T09:08:41.619Z,10.07
2018-07-25T09:11:09.362Z,10.60
2018-07-25T09:13:37.060Z,11.43
2018-07-25T09:16:04.794Z,9.53
2018-07-25T09:18:32.467Z,9.47
2018-07-25T09:21:00.206Z,10.07
2018-07-25T09:23:27.948Z,9.90
2018-07-25T09:25:55.704Z,9.43
2018-07-25T09:28:23.342Z,9.30
2018-07-25T09:30:51.067Z,10.03
2018-07-25T09:33:18.734Z,10.30
2018-07-25T09:35:46.414Z,9.03
2018-07-25T09:38:14.178Z,9.60
2018-07-25T09:40:41.972Z,8.43
2018-07-25T09:43:09.703Z,8.00
2018-07-25T09:45:37.458Z,9.60
2018-07-25T09:48:05.195Z,7.57
2018-07-25T09:50:32.976Z,7.77
2018-07-25T09:53:00.761Z,8.50
2018-07-25T09:55:28.512Z,8.30
2018-07-25T09:57:56.155Z,9.53
2018-07-25T10:00:29.547Z,8.50
2018-07-25T10:02:57.210Z,7.90
2018-07-25T10:05:24.927Z,7.37
2018-07-25T10:07:52.623Z,8.33
2018-07-25T10:10:20.363Z,7.23
2018-07-25T10:12:48.158Z,8.27
2018-07-25T10:15:15.931Z,8.43
2018-07-25T10:17:43.714Z,9.67
2018-07-25T10:20:11.471Z,8.83
2018-07-25T10:22:39.219Z,7.93
2018-07-25T10:25:06.988Z,7.87
2018-07-25T10:27:34.729Z,9.07
2018-07-25T10:30:02.617Z,8.90
2018-07-25T10:32:30.370Z,10.13
2018-07-25T10:34:58.410Z,8.03
2018-07-25T10:37:26.145Z,8.90
2018-07-25T10:39:54.120Z,8.00
2018-07-25T10:42:21.844Z,7.73
2018-07-25T10:44:50.360Z,7.00
2018-07-25T10:47:18.064Z,7.73
2018-07-25T10:49:45.784Z,7.37
2018-07-25T10:52:13.799Z,6.47
2018-07-25T10:54:42.626Z,7.27
2018-07-25T10:57:10.349Z,6.63
2018-07-25T10:59:38.070Z,6.83
2018-07-25T11:02:05.990Z,6.67
2018-07-25T11:04:33.745Z,6.50
2018-07-25T11:07:01.568Z,6.27
2018-07-25T11:09:29.292Z,6.53
2018-07-25T11:11:57.102Z,6.60
2018-07-25T11:14:24.752Z,6.13
2018-07-25T11:16:52.541Z,7.07
2018-07-25T11:19:20.306Z,6.60
2018-07-25T11:21:47.925Z,6.37
2018-07-25T11:24:15.907Z,6.80
2018-07-25T11:26:43.654Z,7.57
2018-07-25T11:29:11.403Z,6.30
2018-07-25T11:31:39.169Z,6.93
2018-07-25T11:34:06.942Z,6.97
2018-07-25T11:36:34.654Z,7.00
2018-07-25T11:39:02.835Z,6.90
2018-07-25T11:41:30.579Z,6.67
2018-07-25T11:43:58.947Z,7.57
2018-07-25T11:46:26.590Z,6.60
2018-07-25T11:48:54.334Z,6.67
2018-07-25T11:51:22.295Z,6.63
2018-07-25T11:53:50.023Z,5.93
2018-07-25T11:56:17.779Z,5.40
2018-07-25T11:58:45.491Z,6.80
2018-07-25T12:01:13.285Z,6.50
2018-07-25T12:03:40.930Z,6.20
2018-07-25T12:06:08.677Z,5.73
2018-07-25T12:08:36.431Z,7.97
2018-07-25T12:11:05.792Z,7.07
2018-07-25T12:13:33.463Z,7.20
2018-07-25T12:16:01.231Z,7.37
2018-07-25T12:18:29.238Z,8.53
2018-07-25T12:20:57.008Z,6.63
2018-07-25T12:23:24.755Z,6.00
2018-07-25T12:25:52.499Z,6.00
2018-07-25T12:28:20.485Z,5.33
2018-07-25T12:30:48.194Z,6.10
2018-07-25T12:33:16.709Z,5.30
2018-07-25T12:35:44.572Z,6.10
2018-07-25T12:38:12.312Z,5.43
2018-07-25T12:40:40.006Z,5.77
2018-07-25T12:43:07.778Z,5.90
2018-07-25T12:45:35.523Z,6.07
2018-07-25T12:48:03.340Z,6.17
2018-07-25T12:50:31.019Z,5.70
2018-07-25T12:52:58.767Z,6.33
2018-07-25T12:55:26.504Z,6.37
2018-07-25T12:57:54.290Z,6.17
2018-07-25T13:00:22.058Z,5.37
2018-07-25T13:02:49.862Z,6.70
2018-07-25T13:05:17.481Z,6.87
2018-07-25T13:07:45.134Z,5.27
2018-07-25T13:10:13.456Z,6.77
2018-07-25T13:12:41.189Z,6.20
2018-07-25T13:15:08.954Z,6.80
2018-07-25T13:17:36.687Z,5.83
2018-07-25T13:20:04.830Z,6.73
2018-07-25T13:22:32.647Z,5.70
2018-07-25T13:25:00.407Z,6.77
2018-07-25T13:27:28.142Z,6.50
2018-07-25T13:29:55.899Z,6.30
2018-07-25T13:32:23.804Z,6.50
2018-07-25T13:34:51.528Z,7.20
2018-07-25T13:37:19.338Z,6.30
2018-07-25T13:39:47.276Z,5.20
2018-07-25T13:42:15.032Z,5.93
2018-07-25T13:44:42.804Z,6.67
2018-07-25T13:47:11.035Z,6.37
2018-07-25T13:49:38.726Z,6.10
2018-07-25T13:52:06.510Z,9.30
2018-07-25T13:54:34.262Z,6.90
2018-07-25T13:57:01.966Z,7.00
2018-07-25T13:59:29.680Z,6.60
2018-07-25T14:01:57.406Z,6.30
2018-07-25T14:04:25.212Z,7.00
2018-07-25T14:06:52.915Z,6.73
2018-07-25T14:09:20.626Z,5.73
2018-07-25T14:11:48.402Z,6.30
2018-07-25T14:14:16.063Z,6.47
2018-07-25T14:16:49.057Z,6.27
2018-07-25T14:19:16.807Z,7.07
2018-07-25T14:21:44.624Z,6.43
2018-07-25T14:24:12.385Z,6.23
2018-07-25T14:26:40.174Z,7.90
2018-07-25T14:29:07.920Z,5.20
2018-07-25T14:31:35.927Z,5.37
2018-07-25T14:34:03.690Z,6.33
2018-07-25T14:36:31.495Z,5.80
2018-07-25T14:38:59.257Z,6.30
2018-07-25T14:41:26.968Z,6.47
2018-07-25T14:43:54.684Z,7.47
2018-07-25T14:46:22.301Z,6.87
2018-07-25T14:48:50.109Z,5.73
2018-07-25T14:51:17.992Z,5.83
2018-07-25T14:53:45.630Z,6.57
2018-07-25T14:56:13.605Z,7.97
2018-07-25T14:58:41.354Z,6.10
2018-07-25T15:01:09.137Z,6.37
2018-07-25T15:03:36.858Z,6.13
2018-07-25T15:06:05.476Z,5.93
2018-07-25T15:08:33.230Z,5.73
2018-07-25T15:11:01.013Z,5.90
2018-07-25T15:13:29.086Z,5.10
2018-07-25T15:15:56.843Z,6.50
2018-07-25T15:18:24.634Z,6.53
2018-07-25T15:20:52.646Z,6.40
2018-07-25T15:23:31.603Z,6.43
2018-07-25T15:25:59.445Z,6.20
2018-07-25T15:28:27.283Z,5.97
2018-07-25T15:30:55.077Z,4.80
2018-07-25T15:33:22.882Z,6.17
2018-07-25T15:35:50.607Z,5.90
2018-07-25T15:38:18.331Z,6.60
2018-07-25T15:40:46.036Z,6.27
2018-07-25T15:43:13.792Z,6.70
2018-07-25T15:45:41.550Z,6.00
2018-07-25T15:48:09.547Z,6.50
2018-07-25T15:50:37.234Z,6.30
2018-07-25T15:53:05.068Z,5.47
2018-07-25T15:55:34.675Z,6.03
2018-07-25T15:58:02.454Z,5.80
2018-07-25T16:00:30.215Z,6.70
2018-07-25T16:02:58.164Z,6.23
2018-07-25T16:05:25.962Z,5.80
2018-07-25T16:07:53.770Z,6.67
2018-07-25T16:10:21.565Z,5.87
2018-07-25T16:12:49.298Z,5.57
2018-07-25T16:15:17.031Z,5.10
2018-07-25T16:17:44.762Z,5.53
2018-07-25T16:20:12.542Z,5.50
2018-07-25T16:22:40.318Z,4.50
2018-07-25T16:25:08.439Z,5.70
2018-07-25T16:27:36.451Z,6.33
2018-07-25T16:30:04.739Z,5.57
2018-07-25T16:32:32.515Z,4.97
2018-07-25T16:35:00.250Z,4.90
2018-07-25T16:37:27.984Z,5.43
2018-07-25T16:39:55.730Z,5.67
2018-07-25T16:42:23.458Z,4.97
2018-07-25T16:44:51.298Z,5.30
2018-07-25T16:47:19.112Z,5.90
2018-07-25T16:49:47.166Z,6.53
2018-07-25T16:52:14.882Z,5.97
2018-07-25T16:54:42.681Z,5.10
2018-07-25T16:57:10.400Z,5.77
2018-07-25T16:59:38.170Z,7.13
2018-07-25T17:02:05.903Z,5.50
2018-07-25T17:04:33.671Z,5.60
2018-07-25T17:07:01.433Z,7.40
2018-07-25T17:09:29.416Z,5.60
2018-07-25T17:11:57.142Z,5.50
2018-07-25T17:14:24.915Z,6.17
2018-07-25T17:16:52.650Z,5.17
2018-07-25T17:19:20.547Z,7.50
2018-07-25T17:21:50.295Z,5.77
2018-07-25T17:24:18.220Z,4.67
2018-07-25T17:26:46.010Z,4.77
2018-07-25T17:29:13.790Z,4.00
2018-07-25T17:31:41.478Z,3.63
2018-07-25T17:34:09.285Z,7.07
2018-07-25T17:36:37.098Z,6.20
2018-07-25T17:39:07.641Z,3.80
2018-07-25T17:41:35.563Z,4.40
2018-07-25T17:44:03.351Z,4.57
2018-07-25T17:46:31.187Z,3.90
2018-07-25T17:48:59.062Z,3.80
2018-07-25T17:51:26.809Z,4.47
2018-07-25T17:53:54.605Z,4.77
2018-07-25T17:56:22.555Z,4.27
2018-07-25T17:58:50.347Z,5.33
2018-07-25T18:01:18.127Z,4.17
2018-07-25T18:03:45.882Z,4.37
2018-07-25T18:06:13.558Z,4.60
2018-07-25T18:08:41.206Z,4.07
2018-07-25T18:11:09.259Z,5.03
2018-07-25T18:13:42.491Z,4.90
2018-07-25T18:16:10.441Z,4.60
2018-07-25T18:18:40.510Z,5.00
2018-07-25T18:21:09.254Z,6.47
2018-07-25T18:23:38.331Z,6.43
2018-07-25T18:26:06.623Z,6.40
2018-07-25T18:28:34.315Z,4.50
2018-07-25T18:31:02.983Z,6.33
2018-07-25T18:33:31.986Z,4.37
2018-07-25T18:35:59.807Z,4.23
2018-07-25T18:38:27.507Z,4.50
2018-07-25T18:40:56.702Z,3.93
2018-07-25T18:43:24.557Z,3.90
2018-07-25T18:45:52.528Z,3.63
2018-07-25T18:48:20.261Z,3.37
2018-07-25T18:50:48.078Z,4.10
2018-07-25T18:53:15.917Z,4.27
2018-07-25T18:55:44.427Z,3.37
2018-07-25T18:58:13.335Z,3.33
2018-07-25T19:00:44.247Z,3.70
2018-07-25T19:03:12.759Z,3.73
2018-07-25T19:05:40.722Z,3.57
2018-07-25T19:08:08.430Z,6.47
2018-07-25T19:10:36.339Z,3.93
2018-07-25T19:13:08.740Z,3.97
2018-07-25T19:15:36.482Z,4.30
2018-07-25T19:18:05.306Z,5.23
2018-07-25T19:20:33.558Z,2.63
2018-07-25T19:23:01.218Z,3.03
2018-07-25T19:25:28.911Z,3.30
2018-07-25T19:27:57.098Z,4.20
2018-07-25T19:30:24.890Z,5.23
2018-07-25T19:32:53.400Z,5.00
2018-07-25T19:35:22.327Z,4.30
2018-07-25T19:37:50.027Z,2.90
2018-07-25T19:40:18.266Z,3.30
2018-07-25T19:42:46.622Z,4.10
2018-07-25T19:45:14.523Z,5.80
2018-07-25T19:47:42.251Z,2.80
2018-07-25T19:50:09.997Z,2.53
2018-07-25T19:52:38.692Z,3.03
2018-07-25T19:55:06.702Z,2.50
2018-07-25T19:57:34.527Z,3.60
2018-07-25T20:00:02.287Z,3.20
2018-07-25T20:02:30.155Z,3.63
2018-07-25T20:04:57.826Z,3.07
2018-07-25T20:07:25.591Z,3.83
2018-07-25T20:09:53.226Z,5.03
2018-07-25T20:12:20.988Z,3.10
2018-07-25T20:14:54.266Z,9.57
2018-07-25T20:17:22.041Z,3.00
2018-07-25T20:19:50.082Z,3.27
2018-07-25T20:22:17.846Z,3.00
2018-07-25T20:24:45.674Z,3.10
2018-07-25T20:27:13.690Z,3.30
2018-07-25T20:29:41.874Z,3.10
2018-07-25T20:32:10.634Z,2.87
2018-07-25T20:34:38.379Z,2.67
2018-07-25T20:37:06.350Z,2.70
2018-07-25T20:39:34.255Z,4.07
2018-07-25T20:42:02.111Z,2.93
2018-07-25T20:44:29.940Z,4.77
2018-07-25T20:46:57.731Z,2.33
2018-07-25T20:49:25.515Z,2.20
2018-07-25T20:51:53.198Z,2.23
2018-07-25T20:54:20.922Z,2.80
2018-07-25T20:56:48.728Z,2.63
2018-07-25T20:59:16.371Z,2.40
2018-07-25T21:01:44.178Z,3.17
2018-07-25T21:04:11.834Z,2.97
2018-07-25T21:06:39.622Z,1.90
2018-07-25T21:09:07.897Z,3.40
2018-07-25T21:11:35.668Z,2.70
2018-07-25T21:14:03.487Z,2.73
2018-07-25T21:16:31.303Z,3.03
2018-07-25T21:18:59.005Z,3.27
2018-07-25T21:21:27.009Z,2.97
2018-07-25T21:23:54.772Z,2.90
2018-07-25T21:26:22.505Z,3.77
2018-07-25T21:28:50.158Z,2.30
2018-07-25T21:31:17.851Z,3.57
2018-07-25T21:33:45.576Z,4.90
2018-07-25T21:36:13.207Z,3.03
2018-07-25T21:38:41.005Z,2.70
2018-07-25T21:41:08.721Z,2.77
2018-07-25T21:43:36.559Z,3.47
